sensor_id;sensor_type;location;lat;lon;timestamp;temperature;humidity
23411;DHT22;11878;51.774;7.220;2024-02-28T00:00:26;1.30;99.90
23411;DHT22;11878;51.774;7.220;2024-02-28T00:03:28;1.30;99.90
23411;DHT22;11878;51.774;7.220;2024-02-28T00:06:30;1.20;99.90
23411;DHT22;11878;51.774;7.220;2024-02-28T00:09:32;1.40;99.90
23411;DHT22;11878;51.774;7.220;2024-02-28T00:12:33;1.40;99.90
23411;DHT22;11878;51.774;7.220;2024-02-28T00:15:36;1.30;99.90
23411;DHT22;11878;51.774;7.220;2024-02-28T00:18:38;1.10;99.90
23411;DHT22;11878;51.774;7.220;2024-02-28T00:21:40;0.90;99.90
23411;DHT22;11878;51.774;7.220;2024-02-28T00:24:43;1.10;99.90
23411;DHT22;11878;51.774;7.220;2024-02-28T00:27:45;1.10;99.90
23411;DHT22;11878;51.774;7.220;2024-02-28T00:30:47;1.10;99.90
23411;DHT22;11878;51.774;7.220;2024-02-28T00:33:49;1.00;99.90
23411;DHT22;11878;51.774;7.220;2024-02-28T00:36:51;0.90;99.90
23411;DHT22;11878;51.774;7.220;2024-02-28T00:39:57;1.00;99.90
23411;DHT22;11878;51.774;7.220;2024-02-28T00:42:59;1.00;99.90
23411;DHT22;11878;51.774;7.220;2024-02-28T00:46:01;0.90;99.90
23411;DHT22;11878;51.774;7.220;2024-02-28T00:49:03;1.10;99.90
23411;DHT22;11878;51.774;7.220;2024-02-28T00:52:05;1.10;99.90
23411;DHT22;11878;51.774;7.220;2024-02-28T00:55:07;1.00;99.90
23411;DHT22;11878;51.774;7.220;2024-02-28T00:58:09;0.90;99.90
23411;DHT22;11878;51.774;7.220;2024-02-28T01:01:11;0.80;99.90
23411;DHT22;11878;51.774;7.220;2024-02-28T01:04:13;0.80;99.90
23411;DHT22;11878;51.774;7.220;2024-02-28T01:07:15;0.80;99.90
23411;DHT22;11878;51.774;7.220;2024-02-28T01:10:17;0.90;99.90
23411;DHT22;11878;51.774;7.220;2024-02-28T01:13:19;0.80;99.90
23411;DHT22;11878;51.774;7.220;2024-02-28T01:16:20;0.70;99.90
23411;DHT22;11878;51.774;7.220;2024-02-28T01:19:22;1.00;99.90
23411;DHT22;11878;51.774;7.220;2024-02-28T01:22:24;0.80;99.90
23411;DHT22;11878;51.774;7.220;2024-02-28T01:25:26;0.60;99.90
23411;DHT22;11878;51.774;7.220;2024-02-28T01:28:28;0.50;99.90
23411;DHT22;11878;51.774;7.220;2024-02-28T01:31:30;0.50;99.90
23411;DHT22;11878;51.774;7.220;2024-02-28T01:34:32;0.60;99.90
23411;DHT22;11878;51.774;7.220;2024-02-28T01:37:33;0.70;99.90
23411;DHT22;11878;51.774;7.220;2024-02-28T01:40:35;0.40;99.90
23411;DHT22;11878;51.774;7.220;2024-02-28T01:43:37;0.50;99.90
23411;DHT22;11878;51.774;7.220;2024-02-28T01:46:39;0.50;99.90
23411;DHT22;11878;51.774;7.220;2024-02-28T01:49:42;0.60;99.90
23411;DHT22;11878;51.774;7.220;2024-02-28T01:52:45;0.70;99.90
23411;DHT22;11878;51.774;7.220;2024-02-28T01:55:47;0.90;99.90
23411;DHT22;11878;51.774;7.220;2024-02-28T01:58:50;0.80;99.90
23411;DHT22;11878;51.774;7.220;2024-02-28T02:01:52;0.90;99.90
23411;DHT22;11878;51.774;7.220;2024-02-28T02:04:54;2.30;99.90
23411;DHT22;11878;51.774;7.220;2024-02-28T02:07:57;0.60;99.90
23411;DHT22;11878;51.774;7.220;2024-02-28T02:11:00;0.60;99.90
23411;DHT22;11878;51.774;7.220;2024-02-28T02:14:02;0.70;99.90
23411;DHT22;11878;51.774;7.220;2024-02-28T02:17:04;0.70;99.90
23411;DHT22;11878;51.774;7.220;2024-02-28T02:20:06;0.70;99.90
23411;DHT22;11878;51.774;7.220;2024-02-28T02:23:11;0.70;99.90
23411;DHT22;11878;51.774;7.220;2024-02-28T02:26:14;0.80;99.90
23411;DHT22;11878;51.774;7.220;2024-02-28T02:29:15;0.80;99.90
23411;DHT22;11878;51.774;7.220;2024-02-28T02:32:17;0.90;99.90
23411;DHT22;11878;51.774;7.220;2024-02-28T02:35:19;0.80;99.90
23411;DHT22;11878;51.774;7.220;2024-02-28T02:38:21;0.90;99.90
23411;DHT22;11878;51.774;7.220;2024-02-28T02:41:23;1.10;99.90
23411;DHT22;11878;51.774;7.220;2024-02-28T02:44:25;1.10;99.90
23411;DHT22;11878;51.774;7.220;2024-02-28T02:47:27;1.10;99.90
23411;DHT22;11878;51.774;7.220;2024-02-28T02:50:28;1.00;99.90
23411;DHT22;11878;51.774;7.220;2024-02-28T02:53:30;1.00;99.90
23411;DHT22;11878;51.774;7.220;2024-02-28T02:56:32;1.00;99.90
23411;DHT22;11878;51.774;7.220;2024-02-28T02:59:34;1.10;99.90
23411;DHT22;11878;51.774;7.220;2024-02-28T03:02:37;1.10;99.90
23411;DHT22;11878;51.774;7.220;2024-02-28T03:05:42;1.30;99.90
23411;DHT22;11878;51.774;7.220;2024-02-28T03:08:43;-0.10;99.90
23411;DHT22;11878;51.774;7.220;2024-02-28T03:11:45;1.10;99.90
23411;DHT22;11878;51.774;7.220;2024-02-28T03:14:48;1.10;99.90
23411;DHT22;11878;51.774;7.220;2024-02-28T03:17:50;1.10;99.90
23411;DHT22;11878;51.774;7.220;2024-02-28T03:20:52;1.10;99.90
23411;DHT22;11878;51.774;7.220;2024-02-28T03:23:53;1.20;99.90
23411;DHT22;11878;51.774;7.220;2024-02-28T03:26:55;1.20;99.90
23411;DHT22;11878;51.774;7.220;2024-02-28T03:29:57;1.20;99.90
23411;DHT22;11878;51.774;7.220;2024-02-28T03:32:59;1.30;99.90
23411;DHT22;11878;51.774;7.220;2024-02-28T03:36:01;1.30;99.90
23411;DHT22;11878;51.774;7.220;2024-02-28T03:39:03;1.30;99.90
23411;DHT22;11878;51.774;7.220;2024-02-28T03:42:05;1.30;99.90
23411;DHT22;11878;51.774;7.220;2024-02-28T03:45:08;1.20;99.90
23411;DHT22;11878;51.774;7.220;2024-02-28T03:48:10;1.30;99.90
23411;DHT22;11878;51.774;7.220;2024-02-28T03:51:12;1.30;99.90
23411;DHT22;11878;51.774;7.220;2024-02-28T03:54:14;1.30;99.90
23411;DHT22;11878;51.774;7.220;2024-02-28T03:57:15;1.40;99.90
23411;DHT22;11878;51.774;7.220;2024-02-28T04:00:18;1.30;99.90
23411;DHT22;11878;51.774;7.220;2024-02-28T04:03:20;1.40;99.90
23411;DHT22;11878;51.774;7.220;2024-02-28T04:06:22;1.30;99.90
23411;DHT22;11878;51.774;7.220;2024-02-28T04:09:24;1.40;99.90
23411;DHT22;11878;51.774;7.220;2024-02-28T04:12:26;2.50;99.90
23411;DHT22;11878;51.774;7.220;2024-02-28T04:15:28;1.50;99.90
23411;DHT22;11878;51.774;7.220;2024-02-28T04:18:30;4.00;99.90
23411;DHT22;11878;51.774;7.220;2024-02-28T04:21:32;1.60;99.90
23411;DHT22;11878;51.774;7.220;2024-02-28T04:24:34;1.60;99.90
23411;DHT22;11878;51.774;7.220;2024-02-28T04:27:37;1.60;99.90
23411;DHT22;11878;51.774;7.220;2024-02-28T04:30:39;1.60;99.90
23411;DHT22;11878;51.774;7.220;2024-02-28T04:33:41;1.60;99.90
23411;DHT22;11878;51.774;7.220;2024-02-28T04:36:42;1.70;99.90
23411;DHT22;11878;51.774;7.220;2024-02-28T04:39:44;1.70;99.90
23411;DHT22;11878;51.774;7.220;2024-02-28T04:42:46;1.70;99.90
23411;DHT22;11878;51.774;7.220;2024-02-28T04:45:48;1.80;99.90
23411;DHT22;11878;51.774;7.220;2024-02-28T04:48:50;1.80;99.90
23411;DHT22;11878;51.774;7.220;2024-02-28T04:51:52;1.80;99.90
23411;DHT22;11878;51.774;7.220;2024-02-28T04:54:55;1.80;99.90
23411;DHT22;11878;51.774;7.220;2024-02-28T04:57:59;1.70;99.90
23411;DHT22;11878;51.774;7.220;2024-02-28T05:01:03;1.80;99.90
23411;DHT22;11878;51.774;7.220;2024-02-28T05:04:09;1.90;99.90
23411;DHT22;11878;51.774;7.220;2024-02-28T05:07:11;1.80;99.90
23411;DHT22;11878;51.774;7.220;2024-02-28T05:10:12;3.80;99.90
23411;DHT22;11878;51.774;7.220;2024-02-28T05:13:14;1.80;99.90
23411;DHT22;11878;51.774;7.220;2024-02-28T05:16:16;1.80;99.90
23411;DHT22;11878;51.774;7.220;2024-02-28T05:19:18;1.80;99.90
23411;DHT22;11878;51.774;7.220;2024-02-28T05:22:20;1.80;99.90
23411;DHT22;11878;51.774;7.220;2024-02-28T05:25:22;1.80;99.90
23411;DHT22;11878;51.774;7.220;2024-02-28T05:28:24;1.80;99.90
23411;DHT22;11878;51.774;7.220;2024-02-28T05:31:27;1.90;99.90
23411;DHT22;11878;51.774;7.220;2024-02-28T05:34:28;1.80;99.90
23411;DHT22;11878;51.774;7.220;2024-02-28T05:37:31;1.80;99.90
23411;DHT22;11878;51.774;7.220;2024-02-28T05:40:33;1.90;99.90
23411;DHT22;11878;51.774;7.220;2024-02-28T05:43:37;1.90;99.90
23411;DHT22;11878;51.774;7.220;2024-02-28T05:46:40;1.90;99.90
23411;DHT22;11878;51.774;7.220;2024-02-28T05:49:42;2.00;99.90
23411;DHT22;11878;51.774;7.220;2024-02-28T05:52:44;2.00;99.90
23411;DHT22;11878;51.774;7.220;2024-02-28T05:55:46;2.00;99.90
23411;DHT22;11878;51.774;7.220;2024-02-28T05:58:48;2.00;99.90
23411;DHT22;11878;51.774;7.220;2024-02-28T06:01:50;2.00;99.90
23411;DHT22;11878;51.774;7.220;2024-02-28T06:04:52;2.10;99.90
23411;DHT22;11878;51.774;7.220;2024-02-28T06:07:54;2.10;99.90
23411;DHT22;11878;51.774;7.220;2024-02-28T06:10:56;2.10;99.90
23411;DHT22;11878;51.774;7.220;2024-02-28T06:13:58;2.10;99.90
23411;DHT22;11878;51.774;7.220;2024-02-28T06:17:00;2.20;99.90
23411;DHT22;11878;51.774;7.220;2024-02-28T06:20:02;2.20;99.90
23411;DHT22;11878;51.774;7.220;2024-02-28T06:23:04;2.20;99.90
23411;DHT22;11878;51.774;7.220;2024-02-28T06:26:16;2.20;99.90
23411;DHT22;11878;51.774;7.220;2024-02-28T06:29:19;2.30;99.90
23411;DHT22;11878;51.774;7.220;2024-02-28T06:32:24;2.30;99.90
23411;DHT22;11878;51.774;7.220;2024-02-28T06:35:26;2.30;99.90
23411;DHT22;11878;51.774;7.220;2024-02-28T06:38:28;2.40;99.90
23411;DHT22;11878;51.774;7.220;2024-02-28T06:41:30;2.40;99.90
23411;DHT22;11878;51.774;7.220;2024-02-28T06:44:32;2.50;99.90
23411;DHT22;11878;51.774;7.220;2024-02-28T06:47:34;2.50;99.90
23411;DHT22;11878;51.774;7.220;2024-02-28T06:50:37;2.50;99.90
23411;DHT22;11878;51.774;7.220;2024-02-28T06:53:39;2.60;99.90
23411;DHT22;11878;51.774;7.220;2024-02-28T06:56:42;2.60;99.90
23411;DHT22;11878;51.774;7.220;2024-02-28T06:59:44;2.70;99.90
23411;DHT22;11878;51.774;7.220;2024-02-28T07:02:45;2.70;99.90
23411;DHT22;11878;51.774;7.220;2024-02-28T07:05:47;2.80;99.90
23411;DHT22;11878;51.774;7.220;2024-02-28T07:08:49;2.80;99.90
23411;DHT22;11878;51.774;7.220;2024-02-28T07:11:51;2.90;99.90
23411;DHT22;11878;51.774;7.220;2024-02-28T07:14:53;3.00;99.90
23411;DHT22;11878;51.774;7.220;2024-02-28T07:17:56;3.10;99.90
23411;DHT22;11878;51.774;7.220;2024-02-28T07:20:59;3.20;99.90
23411;DHT22;11878;51.774;7.220;2024-02-28T07:24:01;3.20;99.90
23411;DHT22;11878;51.774;7.220;2024-02-28T07:27:04;3.30;99.90
23411;DHT22;11878;51.774;7.220;2024-02-28T07:30:06;3.30;99.90
23411;DHT22;11878;51.774;7.220;2024-02-28T07:33:08;3.40;99.90
23411;DHT22;11878;51.774;7.220;2024-02-28T07:36:11;3.40;99.90
23411;DHT22;11878;51.774;7.220;2024-02-28T07:39:12;3.40;99.90
23411;DHT22;11878;51.774;7.220;2024-02-28T07:42:14;3.50;99.90
23411;DHT22;11878;51.774;7.220;2024-02-28T07:45:16;3.50;99.90
23411;DHT22;11878;51.774;7.220;2024-02-28T07:48:18;3.60;99.90
23411;DHT22;11878;51.774;7.220;2024-02-28T07:51:20;3.60;99.90
23411;DHT22;11878;51.774;7.220;2024-02-28T07:54:22;3.70;99.90
23411;DHT22;11878;51.774;7.220;2024-02-28T07:57:23;3.90;99.90
23411;DHT22;11878;51.774;7.220;2024-02-28T08:00:25;4.00;99.90
23411;DHT22;11878;51.774;7.220;2024-02-28T08:03:27;3.90;99.90
23411;DHT22;11878;51.774;7.220;2024-02-28T08:06:29;4.00;99.90
23411;DHT22;11878;51.774;7.220;2024-02-28T08:09:32;3.90;99.90
23411;DHT22;11878;51.774;7.220;2024-02-28T08:12:34;4.00;99.90
23411;DHT22;11878;51.774;7.220;2024-02-28T08:15:36;4.10;99.90
23411;DHT22;11878;51.774;7.220;2024-02-28T08:18:38;4.00;99.90
23411;DHT22;11878;51.774;7.220;2024-02-28T08:21:40;4.00;99.90
23411;DHT22;11878;51.774;7.220;2024-02-28T08:24:42;4.00;99.90
23411;DHT22;11878;51.774;7.220;2024-02-28T08:27:44;4.20;99.90
23411;DHT22;11878;51.774;7.220;2024-02-28T08:30:46;4.20;99.90
23411;DHT22;11878;51.774;7.220;2024-02-28T08:33:48;4.20;99.90
23411;DHT22;11878;51.774;7.220;2024-02-28T08:36:50;4.20;99.90
23411;DHT22;11878;51.774;7.220;2024-02-28T08:39:53;4.20;99.90
23411;DHT22;11878;51.774;7.220;2024-02-28T08:42:58;4.30;99.90
23411;DHT22;11878;51.774;7.220;2024-02-28T08:46:00;4.30;99.90
23411;DHT22;11878;51.774;7.220;2024-02-28T08:49:02;4.40;99.90
23411;DHT22;11878;51.774;7.220;2024-02-28T08:52:05;4.40;99.90
23411;DHT22;11878;51.774;7.220;2024-02-28T08:55:07;4.30;99.90
23411;DHT22;11878;51.774;7.220;2024-02-28T08:58:09;4.30;99.90
23411;DHT22;11878;51.774;7.220;2024-02-28T09:01:14;4.30;99.90
23411;DHT22;11878;51.774;7.220;2024-02-28T09:04:17;4.50;99.90
23411;DHT22;11878;51.774;7.220;2024-02-28T09:07:18;4.70;99.90
23411;DHT22;11878;51.774;7.220;2024-02-28T09:10:24;4.80;99.90
23411;DHT22;11878;51.774;7.220;2024-02-28T09:13:26;4.90;99.90
23411;DHT22;11878;51.774;7.220;2024-02-28T09:16:29;4.90;99.90
23411;DHT22;11878;51.774;7.220;2024-02-28T09:19:31;4.80;99.90
23411;DHT22;11878;51.774;7.220;2024-02-28T09:22:33;5.00;99.90
23411;DHT22;11878;51.774;7.220;2024-02-28T09:25:36;5.10;99.90
23411;DHT22;11878;51.774;7.220;2024-02-28T09:28:38;5.10;99.90
23411;DHT22;11878;51.774;7.220;2024-02-28T09:31:40;5.20;99.90
23411;DHT22;11878;51.774;7.220;2024-02-28T09:34:42;5.30;99.90
23411;DHT22;11878;51.774;7.220;2024-02-28T09:37:44;3.80;99.90
23411;DHT22;11878;51.774;7.220;2024-02-28T09:40:46;5.40;99.90
23411;DHT22;11878;51.774;7.220;2024-02-28T09:43:50;5.40;99.90
23411;DHT22;11878;51.774;7.220;2024-02-28T09:46:52;5.60;99.90
23411;DHT22;11878;51.774;7.220;2024-02-28T09:49:56;5.60;99.90
23411;DHT22;11878;51.774;7.220;2024-02-28T09:53:00;5.60;99.90
23411;DHT22;11878;51.774;7.220;2024-02-28T09:56:11;5.80;99.90
23411;DHT22;11878;51.774;7.220;2024-02-28T09:59:15;5.90;99.90
23411;DHT22;11878;51.774;7.220;2024-02-28T10:02:17;5.70;99.90
23411;DHT22;11878;51.774;7.220;2024-02-28T10:05:22;5.70;99.90
23411;DHT22;11878;51.774;7.220;2024-02-28T10:08:28;5.70;99.90
23411;DHT22;11878;51.774;7.220;2024-02-28T10:11:30;5.80;99.90
23411;DHT22;11878;51.774;7.220;2024-02-28T10:14:32;6.00;99.90
23411;DHT22;11878;51.774;7.220;2024-02-28T10:17:35;6.10;99.90
23411;DHT22;11878;51.774;7.220;2024-02-28T10:20:40;6.30;99.90
23411;DHT22;11878;51.774;7.220;2024-02-28T10:23:42;6.40;99.90
23411;DHT22;11878;51.774;7.220;2024-02-28T10:26:47;6.20;99.90
23411;DHT22;11878;51.774;7.220;2024-02-28T10:29:59;6.20;99.90
23411;DHT22;11878;51.774;7.220;2024-02-28T10:33:00;6.30;99.90
23411;DHT22;11878;51.774;7.220;2024-02-28T10:36:04;6.50;99.90
23411;DHT22;11878;51.774;7.220;2024-02-28T10:39:06;6.40;99.90
23411;DHT22;11878;51.774;7.220;2024-02-28T10:42:11;6.40;99.90
23411;DHT22;11878;51.774;7.220;2024-02-28T10:45:17;6.50;99.90
23411;DHT22;11878;51.774;7.220;2024-02-28T10:48:35;6.30;99.90
23411;DHT22;11878;51.774;7.220;2024-02-28T10:51:37;6.40;99.90
23411;DHT22;11878;51.774;7.220;2024-02-28T10:54:51;6.50;99.90
23411;DHT22;11878;51.774;7.220;2024-02-28T10:58:03;6.60;99.90
23411;DHT22;11878;51.774;7.220;2024-02-28T11:01:12;6.70;99.90
23411;DHT22;11878;51.774;7.220;2024-02-28T11:04:16;6.60;99.90
23411;DHT22;11878;51.774;7.220;2024-02-28T11:07:22;6.70;99.90
23411;DHT22;11878;51.774;7.220;2024-02-28T11:10:30;6.70;99.90
23411;DHT22;11878;51.774;7.220;2024-02-28T11:13:32;6.70;99.90
23411;DHT22;11878;51.774;7.220;2024-02-28T11:16:34;6.70;99.90
23411;DHT22;11878;51.774;7.220;2024-02-28T11:19:38;6.70;99.90
23411;DHT22;11878;51.774;7.220;2024-02-28T11:22:57;9.50;99.90
23411;DHT22;11878;51.774;7.220;2024-02-28T11:25:59;6.70;99.90
23411;DHT22;11878;51.774;7.220;2024-02-28T11:29:01;6.70;99.90
23411;DHT22;11878;51.774;7.220;2024-02-28T11:32:03;6.70;99.90
23411;DHT22;11878;51.774;7.220;2024-02-28T11:35:09;6.70;99.90
23411;DHT22;11878;51.774;7.220;2024-02-28T11:38:14;6.70;99.90
23411;DHT22;11878;51.774;7.220;2024-02-28T11:41:25;6.90;99.90
23411;DHT22;11878;51.774;7.220;2024-02-28T11:44:29;6.80;99.90
23411;DHT22;11878;51.774;7.220;2024-02-28T11:47:35;6.90;99.90
23411;DHT22;11878;51.774;7.220;2024-02-28T11:50:37;7.20;99.90
23411;DHT22;11878;51.774;7.220;2024-02-28T11:53:39;7.30;99.90
23411;DHT22;11878;51.774;7.220;2024-02-28T11:56:41;7.30;99.90
23411;DHT22;11878;51.774;7.220;2024-02-28T11:59:44;7.50;99.90
23411;DHT22;11878;51.774;7.220;2024-02-28T12:02:47;9.10;99.90
23411;DHT22;11878;51.774;7.220;2024-02-28T12:05:55;7.50;99.90
23411;DHT22;11878;51.774;7.220;2024-02-28T12:08:57;8.00;99.90
23411;DHT22;11878;51.774;7.220;2024-02-28T12:12:03;8.00;99.90
23411;DHT22;11878;51.774;7.220;2024-02-28T12:15:08;8.50;99.90
23411;DHT22;11878;51.774;7.220;2024-02-28T12:18:10;9.10;99.90
23411;DHT22;11878;51.774;7.220;2024-02-28T12:21:12;9.70;99.90
23411;DHT22;11878;51.774;7.220;2024-02-28T12:24:14;10.10;99.90
23411;DHT22;11878;51.774;7.220;2024-02-28T12:27:16;10.10;99.90
23411;DHT22;11878;51.774;7.220;2024-02-28T12:30:19;9.90;99.90
23411;DHT22;11878;51.774;7.220;2024-02-28T12:33:20;10.10;99.90
23411;DHT22;11878;51.774;7.220;2024-02-28T12:36:22;9.60;99.90
23411;DHT22;11878;51.774;7.220;2024-02-28T12:39:24;9.70;99.90
23411;DHT22;11878;51.774;7.220;2024-02-28T12:42:29;9.60;99.90
23411;DHT22;11878;51.774;7.220;2024-02-28T12:45:31;9.40;99.90
23411;DHT22;11878;51.774;7.220;2024-02-28T12:48:42;9.40;99.90
23411;DHT22;11878;51.774;7.220;2024-02-28T12:51:52;9.40;99.90
23411;DHT22;11878;51.774;7.220;2024-02-28T12:54:54;9.70;99.90
23411;DHT22;11878;51.774;7.220;2024-02-28T12:57:56;11.80;99.90
23411;DHT22;11878;51.774;7.220;2024-02-28T13:00:58;9.90;99.90
23411;DHT22;11878;51.774;7.220;2024-02-28T13:04:00;10.30;99.90
23411;DHT22;11878;51.774;7.220;2024-02-28T13:07:02;10.30;99.90
23411;DHT22;11878;51.774;7.220;2024-02-28T13:10:05;10.20;99.90
23411;DHT22;11878;51.774;7.220;2024-02-28T13:13:07;10.20;99.90
23411;DHT22;11878;51.774;7.220;2024-02-28T13:16:09;10.00;99.90
23411;DHT22;11878;51.774;7.220;2024-02-28T13:19:11;9.90;99.90
23411;DHT22;11878;51.774;7.220;2024-02-28T13:22:13;9.60;99.90
23411;DHT22;11878;51.774;7.220;2024-02-28T13:25:15;9.60;99.90
23411;DHT22;11878;51.774;7.220;2024-02-28T13:28:17;9.40;99.90
23411;DHT22;11878;51.774;7.220;2024-02-28T13:31:19;9.20;99.90
23411;DHT22;11878;51.774;7.220;2024-02-28T13:34:21;9.40;99.90
23411;DHT22;11878;51.774;7.220;2024-02-28T13:37:22;9.30;99.90
23411;DHT22;11878;51.774;7.220;2024-02-28T13:40:24;9.40;99.90
23411;DHT22;11878;51.774;7.220;2024-02-28T13:43:26;9.50;99.90
23411;DHT22;11878;51.774;7.220;2024-02-28T13:46:29;9.30;99.90
23411;DHT22;11878;51.774;7.220;2024-02-28T13:49:31;9.10;99.90
23411;DHT22;11878;51.774;7.220;2024-02-28T13:52:34;9.40;99.90
23411;DHT22;11878;51.774;7.220;2024-02-28T13:55:35;9.20;99.90
23411;DHT22;11878;51.774;7.220;2024-02-28T13:58:37;9.20;99.90
23411;DHT22;11878;51.774;7.220;2024-02-28T14:01:50;9.20;99.90
23411;DHT22;11878;51.774;7.220;2024-02-28T14:04:54;9.20;99.90
23411;DHT22;11878;51.774;7.220;2024-02-28T14:07:56;9.00;99.90
23411;DHT22;11878;51.774;7.220;2024-02-28T14:10:59;9.10;99.90
23411;DHT22;11878;51.774;7.220;2024-02-28T14:14:00;9.20;99.90
23411;DHT22;11878;51.774;7.220;2024-02-28T14:17:09;9.40;99.90
23411;DHT22;11878;51.774;7.220;2024-02-28T14:20:11;9.30;99.90
23411;DHT22;11878;51.774;7.220;2024-02-28T14:23:14;9.30;99.90
23411;DHT22;11878;51.774;7.220;2024-02-28T14:26:16;9.30;99.90
23411;DHT22;11878;51.774;7.220;2024-02-28T14:29:17;9.30;99.90
23411;DHT22;11878;51.774;7.220;2024-02-28T14:32:19;9.30;99.90
23411;DHT22;11878;51.774;7.220;2024-02-28T14:35:22;9.20;99.90
23411;DHT22;11878;51.774;7.220;2024-02-28T14:38:24;9.20;99.90
23411;DHT22;11878;51.774;7.220;2024-02-28T14:41:26;9.30;99.90
23411;DHT22;11878;51.774;7.220;2024-02-28T14:44:28;9.30;99.90
23411;DHT22;11878;51.774;7.220;2024-02-28T14:47:30;9.40;99.90
23411;DHT22;11878;51.774;7.220;2024-02-28T14:50:32;9.30;99.90
23411;DHT22;11878;51.774;7.220;2024-02-28T14:53:33;9.40;99.90
23411;DHT22;11878;51.774;7.220;2024-02-28T14:56:35;9.40;99.90
23411;DHT22;11878;51.774;7.220;2024-02-28T14:59:37;9.40;99.90
23411;DHT22;11878;51.774;7.220;2024-02-28T15:02:40;9.20;99.90
23411;DHT22;11878;51.774;7.220;2024-02-28T15:05:41;9.00;99.90
23411;DHT22;11878;51.774;7.220;2024-02-28T15:08:44;9.00;99.90
23411;DHT22;11878;51.774;7.220;2024-02-28T15:11:49;9.00;99.90
23411;DHT22;11878;51.774;7.220;2024-02-28T15:14:51;8.90;99.90
23411;DHT22;11878;51.774;7.220;2024-02-28T15:17:53;8.80;99.90
23411;DHT22;11878;51.774;7.220;2024-02-28T15:20:55;8.70;99.90
23411;DHT22;11878;51.774;7.220;2024-02-28T15:24:02;8.70;99.90
23411;DHT22;11878;51.774;7.220;2024-02-28T15:27:04;8.70;99.90
23411;DHT22;11878;51.774;7.220;2024-02-28T15:30:07;8.70;99.90
23411;DHT22;11878;51.774;7.220;2024-02-28T15:33:09;8.60;99.90
23411;DHT22;11878;51.774;7.220;2024-02-28T15:36:11;8.60;99.90
23411;DHT22;11878;51.774;7.220;2024-02-28T15:39:12;8.60;99.90
23411;DHT22;11878;51.774;7.220;2024-02-28T15:42:14;8.60;99.90
23411;DHT22;11878;51.774;7.220;2024-02-28T15:45:16;8.60;99.90
23411;DHT22;11878;51.774;7.220;2024-02-28T15:48:20;8.60;99.90
23411;DHT22;11878;51.774;7.220;2024-02-28T15:51:22;8.60;99.90
23411;DHT22;11878;51.774;7.220;2024-02-28T15:54:24;8.50;99.90
23411;DHT22;11878;51.774;7.220;2024-02-28T15:57:26;8.50;99.90
23411;DHT22;11878;51.774;7.220;2024-02-28T16:00:27;8.40;99.90
23411;DHT22;11878;51.774;7.220;2024-02-28T16:03:30;8.40;99.90
23411;DHT22;11878;51.774;7.220;2024-02-28T16:06:32;8.40;99.90
23411;DHT22;11878;51.774;7.220;2024-02-28T16:09:41;8.40;99.90
23411;DHT22;11878;51.774;7.220;2024-02-28T16:12:44;8.40;99.90
23411;DHT22;11878;51.774;7.220;2024-02-28T16:15:46;8.40;99.90
23411;DHT22;11878;51.774;7.220;2024-02-28T16:18:48;8.40;99.90
23411;DHT22;11878;51.774;7.220;2024-02-28T16:21:51;8.30;99.90
23411;DHT22;11878;51.774;7.220;2024-02-28T16:24:53;8.30;99.90
23411;DHT22;11878;51.774;7.220;2024-02-28T16:27:55;8.30;99.90
23411;DHT22;11878;51.774;7.220;2024-02-28T16:30:57;8.40;99.90
23411;DHT22;11878;51.774;7.220;2024-02-28T16:34:01;8.40;99.90
23411;DHT22;11878;51.774;7.220;2024-02-28T16:37:03;8.40;99.90
23411;DHT22;11878;51.774;7.220;2024-02-28T16:40:06;8.40;99.90
23411;DHT22;11878;51.774;7.220;2024-02-28T16:43:14;8.20;99.90
23411;DHT22;11878;51.774;7.220;2024-02-28T16:46:19;8.20;99.90
23411;DHT22;11878;51.774;7.220;2024-02-28T16:49:30;8.20;99.90
23411;DHT22;11878;51.774;7.220;2024-02-28T16:52:47;8.20;99.90
23411;DHT22;11878;51.774;7.220;2024-02-28T16:55:55;8.10;99.90
23411;DHT22;11878;51.774;7.220;2024-02-28T16:59:08;8.20;99.90
23411;DHT22;11878;51.774;7.220;2024-02-28T17:02:15;7.90;99.90
23411;DHT22;11878;51.774;7.220;2024-02-28T17:05:24;7.90;99.90
23411;DHT22;11878;51.774;7.220;2024-02-28T17:08:27;7.80;99.90
23411;DHT22;11878;51.774;7.220;2024-02-28T17:11:32;7.80;99.90
23411;DHT22;11878;51.774;7.220;2024-02-28T17:14:41;5.90;99.90
23411;DHT22;11878;51.774;7.220;2024-02-28T17:17:50;7.50;99.90
23411;DHT22;11878;51.774;7.220;2024-02-28T17:20:52;8.90;99.90
23411;DHT22;11878;51.774;7.220;2024-02-28T17:23:54;7.20;99.90
23411;DHT22;11878;51.774;7.220;2024-02-28T17:26:56;7.00;99.90
23411;DHT22;11878;51.774;7.220;2024-02-28T17:29:58;6.90;99.90
23411;DHT22;11878;51.774;7.220;2024-02-28T17:33:00;6.70;99.90
23411;DHT22;11878;51.774;7.220;2024-02-28T17:36:02;7.50;99.90
23411;DHT22;11878;51.774;7.220;2024-02-28T17:39:04;6.60;99.90
23411;DHT22;11878;51.774;7.220;2024-02-28T17:42:07;6.60;99.90
23411;DHT22;11878;51.774;7.220;2024-02-28T17:45:09;6.40;99.90
23411;DHT22;11878;51.774;7.220;2024-02-28T17:48:11;6.30;99.90
23411;DHT22;11878;51.774;7.220;2024-02-28T17:51:14;6.20;99.90
23411;DHT22;11878;51.774;7.220;2024-02-28T17:54:20;6.30;99.90
23411;DHT22;11878;51.774;7.220;2024-02-28T17:57:24;6.20;99.90
23411;DHT22;11878;51.774;7.220;2024-02-28T18:00:26;6.20;99.90
23411;DHT22;11878;51.774;7.220;2024-02-28T18:03:28;6.10;99.90
23411;DHT22;11878;51.774;7.220;2024-02-28T18:06:30;6.00;99.90
23411;DHT22;11878;51.774;7.220;2024-02-28T18:09:34;6.00;99.90
23411;DHT22;11878;51.774;7.220;2024-02-28T18:12:43;6.00;99.90
23411;DHT22;11878;51.774;7.220;2024-02-28T18:15:45;5.90;99.90
23411;DHT22;11878;51.774;7.220;2024-02-28T18:18:56;5.90;99.90
23411;DHT22;11878;51.774;7.220;2024-02-28T18:22:12;5.90;99.90
23411;DHT22;11878;51.774;7.220;2024-02-28T18:25:20;7.20;99.90
23411;DHT22;11878;51.774;7.220;2024-02-28T18:28:32;5.80;99.90
23411;DHT22;11878;51.774;7.220;2024-02-28T18:31:48;5.80;99.90
23411;DHT22;11878;51.774;7.220;2024-02-28T18:34:51;5.70;99.90
23411;DHT22;11878;51.774;7.220;2024-02-28T18:38:04;5.80;99.90
23411;DHT22;11878;51.774;7.220;2024-02-28T18:41:06;5.70;99.90
23411;DHT22;11878;51.774;7.220;2024-02-28T18:44:07;5.70;99.90
23411;DHT22;11878;51.774;7.220;2024-02-28T18:47:09;5.80;99.90
23411;DHT22;11878;51.774;7.220;2024-02-28T18:50:11;5.80;99.90
23411;DHT22;11878;51.774;7.220;2024-02-28T18:53:13;3.50;99.90
23411;DHT22;11878;51.774;7.220;2024-02-28T18:56:15;5.90;99.90
23411;DHT22;11878;51.774;7.220;2024-02-28T18:59:16;5.90;99.90
23411;DHT22;11878;51.774;7.220;2024-02-28T19:02:18;5.90;99.90
23411;DHT22;11878;51.774;7.220;2024-02-28T19:05:21;5.80;99.90
23411;DHT22;11878;51.774;7.220;2024-02-28T19:08:22;5.80;99.90
23411;DHT22;11878;51.774;7.220;2024-02-28T19:11:24;5.80;99.90
23411;DHT22;11878;51.774;7.220;2024-02-28T19:14:26;5.80;99.90
23411;DHT22;11878;51.774;7.220;2024-02-28T19:17:28;5.80;99.90
23411;DHT22;11878;51.774;7.220;2024-02-28T19:20:30;5.90;99.90
23411;DHT22;11878;51.774;7.220;2024-02-28T19:23:34;5.80;99.90
23411;DHT22;11878;51.774;7.220;2024-02-28T19:26:36;5.90;99.90
23411;DHT22;11878;51.774;7.220;2024-02-28T19:29:44;5.90;99.90
23411;DHT22;11878;51.774;7.220;2024-02-28T19:32:54;5.80;99.90